Time;durP1;ratioP1;P1;durP2;ratioP2;P2;SDS_P1;SDS_P2;PMS_P1;PMS_P2;Temp;Humidity;BMP_temperature;BMP_pressure;BME280_temperature;BME280_humidity;BME280_pressure;Samples;Min_cycle;Max_cycle;Signal;HPM_P1;HPM_P2
2023/01/27 10:44:58;;;;;;;17.52;10.55;;;;;;;;;;4855086;27;19923;-93
2023/01/27 10:47:55;;;;;;;17.83;10.20;;;;;;;;;;4922610;29;20039;-90
2023/01/27 17:42:14;;;;;;;17.00;9.25;;;;;;;;;;4870557;29;20167;-94
2023/01/27 17:44:39;;;;;;;16.52;9.35;;;;;;;;;;4876948;29;20042;-92
2023/01/27 17:47:06;;;;;;;13.63;8.70;;;;;;;;;;4862625;29;20034;-94
2023/01/27 17:49:31;;;;;;;15.65;9.30;;;;;;;;;;4875515;29;20041;-89
2023/01/27 17:51:59;;;;;;;17.20;9.23;;;;;;;;;;4881749;29;20472;-90
2023/01/27 17:54:32;;;;;;;14.32;8.88;;;;;;;;;;4880793;29;20093;-86
2023/01/27 17:57:15;;;;;;;17.55;9.60;;;;;;;;;;4895061;29;20083;-88
2023/01/27 18:00:05;;;;;;;17.10;8.77;;;;;;;;;;4916370;29;20037;-86
2023/01/27 18:02:33;;;;;;;15.68;8.40;;;;;;;;;;4902924;29;20021;-90
2023/01/27 18:05:05;;;;;;;15.50;9.38;;;;;;;;;;4916146;29;20042;-86
2023/01/27 18:07:31;;;;;;;18.65;9.38;;;;;;;;;;4901801;29;20048;-87
2023/01/27 18:09:57;;;;;;;14.65;8.73;;;;;;;;;;4898705;29;20076;-91
2023/01/27 18:12:25;;;;;;;15.63;9.63;;;;;;;;;;4884496;29;20037;-85
2023/01/27 18:14:51;;;;;;;15.45;9.45;;;;;;;;;;4885685;29;20039;-89
2023/01/27 18:17:22;;;;;;;15.93;8.60;;;;;;;;;;4887604;29;20025;-92
2023/01/27 18:19:52;;;;;;;16.83;9.00;;;;;;;;;;4881867;29;20039;-88
2023/01/27 18:22:19;;;;;;;17.13;9.90;;;;;;;;;;4874514;29;20036;-84
2023/01/27 18:24:53;;;;;;;15.38;9.50;;;;;;;;;;4886715;29;20036;-89
2023/01/27 18:27:25;;;;;;;17.92;9.65;;;;;;;;;;4870243;29;20032;-85
2023/01/27 18:29:55;;;;;;;17.15;10.23;;;;;;;;;;4891110;29;20032;-87
2023/01/27 18:32:39;;;;;;;17.00;9.63;;;;;;;;;;4868198;29;20025;-88
2023/01/27 18:35:23;;;;;;;16.55;10.05;;;;;;;;;;5381410;23;20879;-90
2023/01/27 18:38:00;;;;;;;18.35;9.68;;;;;;;;;;4920238;29;20059;-87
2023/01/27 18:40:34;;;;;;;18.08;11.10;;;;;;;;;;4904477;29;20028;-87
2023/01/27 18:43:02;;;;;;;16.73;9.50;;;;;;;;;;4924405;29;20487;-87
2023/01/27 18:45:27;;;;;;;16.38;9.55;;;;;;;;;;4910421;29;20039;-87
2023/01/27 18:47:54;;;;;;;13.98;9.35;;;;;;;;;;4911113;29;20036;-90
2023/01/27 18:50:22;;;;;;;15.32;9.02;;;;;;;;;;4923114;29;20039;-93
2023/01/27 18:52:49;;;;;;;17.27;9.65;;;;;;;;;;4920358;29;20032;-90
2023/01/27 18:55:27;;;;;;;13.57;8.65;;;;;;;;;;4903441;29;20472;-93
2023/01/27 18:57:57;;;;;;;16.92;9.82;;;;;;;;;;4922030;29;20109;-88
2023/01/27 19:00:24;;;;;;;16.27;9.00;;;;;;;;;;4924864;29;20032;-90
2023/01/27 19:02:55;;;;;;;14.57;8.65;;;;;;;;;;4903270;29;20060;-91
2023/01/27 19:05:30;;;;;;;14.38;8.40;;;;;;;;;;4902597;29;20032;-91
2023/01/27 19:07:55;;;;;;;18.73;10.23;;;;;;;;;;4904439;29;20032;-90
2023/01/27 19:10:27;;;;;;;28.17;13.77;;;;;;;;;;4919996;29;20055;-91
2023/01/27 19:12:54;;;;;;;22.20;12.80;;;;;;;;;;4909208;29;20035;-86
2023/01/27 19:15:22;;;;;;;20.23;11.55;;;;;;;;;;4910374;29;20024;-86
2023/01/27 19:17:50;;;;;;;21.48;12.40;;;;;;;;;;4908733;29;20032;-86
2023/01/27 19:20:22;;;;;;;20.38;11.13;;;;;;;;;;4924112;29;20036;-88
2023/01/27 19:22:49;;;;;;;19.25;12.38;;;;;;;;;;4908502;29;20075;-89
2023/01/27 19:25:15;;;;;;;22.52;12.13;;;;;;;;;;4922220;29;20028;-88
2023/01/27 19:27:43;;;;;;;24.73;13.30;;;;;;;;;;4919618;29;20043;-87
2023/01/27 19:30:35;;;;;;;15.93;9.60;;;;;;;;;;4919063;29;20025;-86
2023/01/27 19:33:01;;;;;;;16.55;9.60;;;;;;;;;;4902703;29;20024;-90
2023/01/27 19:35:30;;;;;;;19.52;11.38;;;;;;;;;;4905698;29;20406;-89
2023/01/27 19:37:57;;;;;;;25.50;14.20;;;;;;;;;;4939544;29;20386;-87
2023/01/27 19:40:27;;;;;;;24.55;12.55;;;;;;;;;;4937963;29;20043;-90
2023/01/27 19:42:53;;;;;;;19.75;11.25;;;;;;;;;;4939696;29;20086;-89
2023/01/27 19:45:19;;;;;;;17.35;9.63;;;;;;;;;;4922634;29;20118;-91
2023/01/27 19:47:47;;;;;;;17.90;10.02;;;;;;;;;;4939732;29;20035;-90
2023/01/27 19:50:21;;;;;;;16.48;9.57;;;;;;;;;;4901340;29;20090;-87
2023/01/27 19:52:47;;;;;;;17.73;10.52;;;;;;;;;;4927105;29;20382;-90
2023/01/27 19:55:13;;;;;;;16.63;9.98;;;;;;;;;;4929998;29;20016;-87
2023/01/27 19:57:40;;;;;;;17.80;10.68;;;;;;;;;;4922082;29;20036;-88
2023/01/27 20:00:17;;;;;;;16.45;9.75;;;;;;;;;;4904163;29;20483;-87
2023/01/27 20:03:04;;;;;;;19.98;10.38;;;;;;;;;;4924486;29;20129;-85
2023/01/27 20:05:37;;;;;;;19.58;10.13;;;;;;;;;;4921589;29;20052;-88
2023/01/27 20:08:27;;;;;;;;;;;;;;;;;;;;;
2023/01/27 20:10:53;;;;;;;18.40;10.85;;;;;;;;;;4919625;29;20467;-89
2023/01/27 20:13:21;;;;;;;16.13;9.77;;;;;;;;;;4919089;29;20056;-90
2023/01/27 20:15:47;;;;;;;19.45;10.30;;;;;;;;;;4918021;29;20487;-90
2023/01/27 20:18:14;;;;;;;18.38;10.90;;;;;;;;;;4901394;29;20122;-88
2023/01/27 20:20:42;;;;;;;19.08;11.13;;;;;;;;;;4919488;29;20479;-91
2023/01/27 20:23:10;;;;;;;19.83;10.80;;;;;;;;;;4902342;29;20144;-90
2023/01/27 20:25:38;;;;;;;16.88;10.05;;;;;;;;;;4901347;29;20035;-86
2023/01/27 20:28:04;;;;;;;19.58;10.93;;;;;;;;;;4917844;29;20086;-88
2023/01/27 20:30:33;;;;;;;17.73;9.35;;;;;;;;;;4901494;29;20130;-87
2023/01/27 20:33:01;;;;;;;22.23;11.98;;;;;;;;;;4900989;29;20087;-88
2023/01/27 20:35:31;;;;;;;19.00;10.95;;;;;;;;;;4901809;29;20060;-89
2023/01/27 20:37:59;;;;;;;17.75;10.23;;;;;;;;;;4918632;29;20043;-89
2023/01/27 20:40:27;;;;;;;18.52;11.45;;;;;;;;;;4918644;29;20383;-88
2023/01/27 20:42:53;;;;;;;24.73;11.65;;;;;;;;;;4917018;29;20035;-89
2023/01/27 20:45:19;;;;;;;37.83;17.77;;;;;;;;;;4918413;29;20035;-89
2023/01/27 20:47:49;;;;;;;27.70;13.52;;;;;;;;;;4918194;29;20060;-89
2023/01/27 20:50:15;;;;;;;;;;;;;;;;;;4918927;29;20372;-87
2023/01/27 20:52:40;;;;;;;19.50;11.23;;;;;;;;;;4918814;29;20384;-88
2023/01/27 20:55:08;;;;;;;21.27;10.75;;;;;;;;;;4919020;29;20522;-89
2023/01/27 20:57:34;;;;;;;20.65;12.20;;;;;;;;;;4901742;29;20036;-89
2023/01/27 20:59:59;;;;;;;20.95;11.80;;;;;;;;;;4901394;29;20024;-90
2023/01/27 21:02:27;;;;;;;21.20;11.30;;;;;;;;;;4902284;29;20059;-90
2023/01/27 21:04:55;;;;;;;19.17;11.43;;;;;;;;;;4901654;29;20068;-91
2023/01/27 21:07:22;;;;;;;19.10;10.60;;;;;;;;;;4918598;29;20475;-89
2023/01/27 21:09:49;;;;;;;19.17;10.75;;;;;;;;;;4901222;29;20032;-94
2023/01/27 21:12:14;;;;;;;17.48;10.18;;;;;;;;;;4901538;29;20391;-91
2023/01/27 21:14:40;;;;;;;19.17;10.70;;;;;;;;;;4901309;29;20460;-90
2023/01/27 21:17:05;;;;;;;18.95;11.00;;;;;;;;;;4918531;29;20032;-91
2023/01/27 21:19:31;;;;;;;17.40;11.00;;;;;;;;;;4901626;29;20035;-89
2023/01/27 21:21:57;;;;;;;30.10;16.90;;;;;;;;;;4901989;29;20050;-89
2023/01/27 21:24:23;;;;;;;21.27;10.65;;;;;;;;;;4900809;29;20040;-89
2023/01/27 21:26:53;;;;;;;36.33;20.58;;;;;;;;;;4918733;29;20382;-89
2023/01/27 21:29:24;;;;;;;21.25;12.57;;;;;;;;;;4902770;29;20497;-89
2023/01/27 21:31:50;;;;;;;18.70;10.50;;;;;;;;;;4922328;29;20084;-89
2023/01/27 21:34:15;;;;;;;24.27;13.50;;;;;;;;;;4905653;29;20032;-91
2023/01/27 21:36:40;;;;;;;22.65;13.40;;;;;;;;;;4921349;29;20044;-88
2023/01/27 21:39:06;;;;;;;23.20;12.35;;;;;;;;;;4922299;29;20040;-93
2023/01/27 21:47:22;;;;;;;21.33;11.00;;;;;;;;;;4921924;29;20048;-89
2023/01/27 21:50:00;;;;;;;20.50;10.15;;;;;;;;;;4905088;29;20040;-90
2023/01/27 21:52:47;;;;;;;31.50;15.95;;;;;;;;;;4905083;29;20027;-89
2023/01/27 21:55:26;;;;;;;21.45;12.40;;;;;;;;;;4902013;29;20427;-89
2023/01/27 21:57:55;;;;;;;21.98;12.18;;;;;;;;;;4904905;29;20125;-89
2023/01/27 22:00:24;;;;;;;21.20;10.93;;;;;;;;;;4905135;29;20116;-90
2023/01/27 22:02:56;;;;;;;17.63;10.43;;;;;;;;;;4922305;29;20028;-91
2023/01/27 22:05:22;;;;;;;19.20;11.02;;;;;;;;;;4905027;29;20123;-92
2023/01/27 22:07:49;;;;;;;17.70;9.80;;;;;;;;;;4922044;29;20107;-93
2023/01/27 22:10:20;;;;;;;20.60;11.35;;;;;;;;;;4920452;29;20051;-89
2023/01/27 22:12:46;;;;;;;19.27;11.10;;;;;;;;;;4904017;29;20468;-91
2023/01/27 22:15:13;;;;;;;19.75;10.75;;;;;;;;;;4903620;29;20039;-90
2023/01/27 22:17:39;;;;;;;17.55;9.70;;;;;;;;;;4920303;29;20375;-89
2023/01/27 22:20:05;;;;;;;17.25;9.48;;;;;;;;;;4903406;29;20035;-88
2023/01/27 22:22:31;;;;;;;19.33;9.90;;;;;;;;;;4920185;29;20464;-92
2023/01/27 22:24:56;;;;;;;18.13;9.35;;;;;;;;;;4920368;29;20056;-89
2023/01/27 22:27:23;;;;;;;15.32;9.38;;;;;;;;;;4921028;29;20066;-93
2023/01/27 22:29:48;;;;;;;17.35;9.18;;;;;;;;;;4904525;29;20040;-91
2023/01/27 22:32:14;;;;;;;17.95;10.20;;;;;;;;;;4921220;29;20106;-93
2023/01/27 22:34:43;;;;;;;18.80;10.43;;;;;;;;;;4921150;29;20025;-90
2023/01/27 22:37:11;;;;;;;21.27;11.23;;;;;;;;;;4903815;29;20055;-90
2023/01/27 22:39:40;;;;;;;22.63;12.85;;;;;;;;;;4903564;29;20028;-90
2023/01/27 22:42:09;;;;;;;27.27;15.07;;;;;;;;;;4902939;29;20040;-91
2023/01/27 22:44:35;;;;;;;25.50;14.70;;;;;;;;;;4904056;29;20071;-90
2023/01/27 22:47:00;;;;;;;25.73;15.02;;;;;;;;;;4919936;29;20454;-92
2023/01/27 22:49:26;;;;;;;27.08;15.57;;;;;;;;;;4919835;29;20170;-90
2023/01/27 22:51:52;;;;;;;27.55;15.75;;;;;;;;;;4903184;29;20095;-90
2023/01/27 22:54:17;;;;;;;25.77;15.10;;;;;;;;;;4921014;29;20460;-91
2023/01/27 22:56:43;;;;;;;26.67;15.30;;;;;;;;;;4905054;29;20032;-90
2023/01/27 22:59:12;;;;;;;26.25;15.35;;;;;;;;;;4904744;29;20035;-89
2023/01/27 23:01:38;;;;;;;27.40;15.52;;;;;;;;;;4903298;29;20056;-90
2023/01/27 23:04:03;;;;;;;24.42;14.48;;;;;;;;;;4919984;29;20554;-90
2023/01/27 23:06:29;;;;;;;20.65;13.68;;;;;;;;;;4919479;29;20490;-89
2023/01/27 23:08:54;;;;;;;24.45;14.02;;;;;;;;;;4902611;29;20032;-88
2023/01/27 23:11:20;;;;;;;23.80;12.85;;;;;;;;;;4919699;29;20483;-88
2023/01/27 23:13:46;;;;;;;23.63;13.10;;;;;;;;;;4919121;29;20103;-87
